Kvitbjoern — LM9158 — position and weather

sailwx.info

Track history (hours):
 
Tides and Currents Weather Stations Pressure Air Temp Water Temp Dewpoint Dewpoint Depression Visibility Wind Speed Wind Dir Waves Ship Positions

Kvitbjoern

Last reported at 2015-May-04 08:31 UTC. Time now 2015-May-05 04:12 UTC.
Position N 66°22' E 012°21'.

Length 10 m.

Type: Fishing. MMSI: 257454420.

Date/timePositionNaut miles runAvg speedWind from/ knotsBaromVisibWave heightAir tempDewpointWater temp
2015-May-04 08:31N 66°22' E 012°21'0 0.0
2015-May-02 14:06N 66°22' E 012°21'0 0.0
2015-May-02 13:30N 66°22' E 012°21'0 0.0
2015-May-02 12:30N 66°22' E 012°21'2 2.4
2015-May-02 11:33N 66°25' E 012°22'0 0.3
2015-May-02 10:31N 66°25' E 012°23'2 2.0
2015-May-02 09:33N 66°26' E 012°20'0 0.4
2015-May-02 08:33N 66°26' E 012°20'0 0.4
2015-May-02 07:23N 66°27' E 012°19'1 1.1
2015-May-02 06:32N 66°26' E 012°20'4 3.6
2015-May-02 05:32N 66°22' E 012°21'0 0.0
2015-May-01 20:30N 66°22' E 012°21'1 1.5
2015-May-01 19:33N 66°24' E 012°20'3 2.7
2015-May-01 18:33N 66°26' E 012°20'0 0.3
2015-May-01 17:31N 66°26' E 012°19'4 1.9
2015-May-01 15:22N 66°22' E 012°21'0 0.0
2015-May-01 14:28N 66°22' E 012°21'0 0.0
2015-May-01 13:28N 66°22' E 012°21'0 0.0
2015-May-01 12:28N 66°22' E 012°21'0 0.0
2015-May-01 11:28N 66°22' E 012°21'0 0.0
2015-Apr-30 14:03N 66°22' E 012°21'0 0.0
2015-Apr-30 13:31N 66°22' E 012°21'0 0.0
2015-Apr-30 12:33N 66°22' E 012°21'0 0.0
2015-Apr-30 11:33N 66°22' E 012°21'0 0.0
2015-Apr-30 10:33N 66°22' E 012°21'0 0.0
2015-Apr-30 09:33N 66°22' E 012°21'0 0.3
2015-Apr-30 08:33N 66°22' E 012°22'3 3.1
2015-Apr-30 07:32N 66°19' E 012°21'1 0.5
2015-Apr-30 06:22N 66°20' E 012°22'1 0.4
2015-Apr-30 03:20N 66°21' E 012°22'2 0.2
2015-Apr-29 18:13N 66°22' E 012°21'0 0.0
2015-Apr-29 17:31N 66°22' E 012°21'3 0.9
2015-Apr-29 14:32N 66°20' E 012°22'2 1.4
2015-Apr-29 13:17N 66°20' E 012°27'2 1.1
2015-Apr-29 11:12N 66°21' E 012°32'3 2.8
2015-Apr-29 10:10N 66°20' E 012°26'0 0.4
2015-Apr-29 09:28N 66°19' E 012°25'1 0.9
2015-Apr-29 08:33N 66°19' E 012°24'0 0.2
2015-Apr-29 06:31N 66°19' E 012°23'0 0.4
2015-Apr-29 05:25N 66°19' E 012°23'0 0.5
2015-Apr-29 04:25N 66°19' E 012°22'0 0.2
2015-Apr-29 03:26N 66°19' E 012°22'3 0.3
2015-Apr-28 17:25N 66°22' E 012°21'4 4.1
2015-Apr-28 16:33N 66°19' E 012°23'1 1.2
2015-Apr-28 15:31N 66°19' E 012°26'1 1.2
2015-Apr-28 14:31N 66°19' E 012°23'0 0.2
2015-Apr-28 13:32N 66°19' E 012°22'1 1.2
2015-Apr-28 12:33N 66°21' E 012°23'3 3.1
2015-Apr-28 11:29N 66°24' E 012°22'0 0.1
2015-Apr-28 10:29N 66°24' E 012°22'2 2.2
2015-Apr-28 09:28N 66°25' E 012°27'1 0.5
2015-Apr-28 08:29N 66°25' E 012°28'3 3.1
2015-Apr-28 07:27N 66°26' E 012°20'0 0.4
2015-Apr-28 06:33N 66°26' E 012°21'2 1.4
2015-Apr-28 05:28N 66°25' E 012°21'0 0.1
2015-Apr-28 04:29N 66°25' E 012°21'0 0.2
2015-Apr-28 03:28N 66°24' E 012°21'2 2.1
2015-Apr-28 02:30N 66°22' E 012°21'0 0.0
2015-Apr-27 16:30N 66°22' E 012°21'2 1.7
2015-Apr-27 15:33N 66°24' E 012°23'2 1.5
2015-Apr-27 14:08N 66°25' E 012°27'2 2.6
2015-Apr-27 13:24N 66°26' E 012°23'1 1.5
2015-Apr-27 12:27N 66°26' E 012°19'2 2.1
2015-Apr-27 11:32N 66°24' E 012°21'2 2.1
2015-Apr-27 10:33N 66°22' E 012°22'0 0.5
2015-Apr-27 09:33N 66°22' E 012°21'0 0.0
2015-Apr-27 08:33N 66°22' E 012°21'0 0.0
2015-Apr-27 07:33N 66°22' E 012°21'0 0.0
2015-Apr-27 06:33N 66°22' E 012°21'0 0.0
2015-Apr-25 17:22N 66°22' E 012°21'0 0.0
2015-Apr-25 16:28N 66°22' E 012°21'0 0.0
2015-Apr-25 15:28N 66°22' E 012°21'0 0.0
2015-Apr-25 14:30N 66°22' E 012°21'0 0.0
2015-Apr-24 17:28N 66°22' E 012°21'0 0.0
2015-Apr-24 16:28N 66°22' E 012°21'0 0.0
2015-Apr-24 15:28N 66°22' E 012°21'0 0.0
2015-Apr-24 14:28N 66°22' E 012°21'0 0.0
2015-Apr-24 13:30N 66°22' E 012°21'0 0.0
2015-Apr-24 10:05N 66°22' E 012°21'0 0.0
2015-Apr-24 09:29N 66°22' E 012°21'  
Track history (hours):
 
Tides and Currents Weather Stations Pressure Air Temp Water Temp Dewpoint Dewpoint Depression Visibility Wind Speed Wind Dir Waves Ship Positions

Kvitbjoern

Last reported at 2015-May-04 08:31 UTC. Time now 2015-May-05 04:12 UTC.
Position N 66°22' E 012°21'.

Length 10 m.

Type: Fishing. MMSI: 257454420.

Date/timePositionNaut miles runAvg speedWind from/ knotsBaromVisibWave heightAir tempDewpointWater temp
2015-May-04 08:31N 66°22' E 012°21'0 0.0
2015-May-02 14:06N 66°22' E 012°21'0 0.0
2015-May-02 13:30N 66°22' E 012°21'0 0.0
2015-May-02 12:30N 66°22' E 012°21'2 2.4
2015-May-02 11:33N 66°25' E 012°22'0 0.3
2015-May-02 10:31N 66°25' E 012°23'2 2.0
2015-May-02 09:33N 66°26' E 012°20'0 0.4
2015-May-02 08:33N 66°26' E 012°20'0 0.4
2015-May-02 07:23N 66°27' E 012°19'1 1.1
2015-May-02 06:32N 66°26' E 012°20'4 3.6
2015-May-02 05:32N 66°22' E 012°21'0 0.0
2015-May-01 20:30N 66°22' E 012°21'1 1.5
2015-May-01 19:33N 66°24' E 012°20'3 2.7
2015-May-01 18:33N 66°26' E 012°20'0 0.3
2015-May-01 17:31N 66°26' E 012°19'4 1.9
2015-May-01 15:22N 66°22' E 012°21'0 0.0
2015-May-01 14:28N 66°22' E 012°21'0 0.0
2015-May-01 13:28N 66°22' E 012°21'0 0.0
2015-May-01 12:28N 66°22' E 012°21'0 0.0
2015-May-01 11:28N 66°22' E 012°21'0 0.0
2015-Apr-30 14:03N 66°22' E 012°21'0 0.0
2015-Apr-30 13:31N 66°22' E 012°21'0 0.0
2015-Apr-30 12:33N 66°22' E 012°21'0 0.0
2015-Apr-30 11:33N 66°22' E 012°21'0 0.0
2015-Apr-30 10:33N 66°22' E 012°21'0 0.0
2015-Apr-30 09:33N 66°22' E 012°21'0 0.3
2015-Apr-30 08:33N 66°22' E 012°22'3 3.1
2015-Apr-30 07:32N 66°19' E 012°21'1 0.5
2015-Apr-30 06:22N 66°20' E 012°22'1 0.4
2015-Apr-30 03:20N 66°21' E 012°22'2 0.2
2015-Apr-29 18:13N 66°22' E 012°21'0 0.0
2015-Apr-29 17:31N 66°22' E 012°21'3 0.9
2015-Apr-29 14:32N 66°20' E 012°22'2 1.4
2015-Apr-29 13:17N 66°20' E 012°27'2 1.1
2015-Apr-29 11:12N 66°21' E 012°32'3 2.8
2015-Apr-29 10:10N 66°20' E 012°26'0 0.4
2015-Apr-29 09:28N 66°19' E 012°25'1 0.9
2015-Apr-29 08:33N 66°19' E 012°24'0 0.2
2015-Apr-29 06:31N 66°19' E 012°23'0 0.4
2015-Apr-29 05:25N 66°19' E 012°23'0 0.5
2015-Apr-29 04:25N 66°19' E 012°22'0 0.2
2015-Apr-29 03:26N 66°19' E 012°22'3 0.3
2015-Apr-28 17:25N 66°22' E 012°21'4 4.1
2015-Apr-28 16:33N 66°19' E 012°23'1 1.2
2015-Apr-28 15:31N 66°19' E 012°26'1 1.2
2015-Apr-28 14:31N 66°19' E 012°23'0 0.2
2015-Apr-28 13:32N 66°19' E 012°22'1 1.2
2015-Apr-28 12:33N 66°21' E 012°23'3 3.1
2015-Apr-28 11:29N 66°24' E 012°22'0 0.1
2015-Apr-28 10:29N 66°24' E 012°22'2 2.2
2015-Apr-28 09:28N 66°25' E 012°27'1 0.5
2015-Apr-28 08:29N 66°25' E 012°28'3 3.1
2015-Apr-28 07:27N 66°26' E 012°20'0 0.4
2015-Apr-28 06:33N 66°26' E 012°21'2 1.4
2015-Apr-28 05:28N 66°25' E 012°21'0 0.1
2015-Apr-28 04:29N 66°25' E 012°21'0 0.2
2015-Apr-28 03:28N 66°24' E 012°21'2 2.1
2015-Apr-28 02:30N 66°22' E 012°21'0 0.0
2015-Apr-27 16:30N 66°22' E 012°21'2 1.7
2015-Apr-27 15:33N 66°24' E 012°23'2 1.5
2015-Apr-27 14:08N 66°25' E 012°27'2 2.6
2015-Apr-27 13:24N 66°26' E 012°23'1 1.5
2015-Apr-27 12:27N 66°26' E 012°19'2 2.1
2015-Apr-27 11:32N 66°24' E 012°21'2 2.1
2015-Apr-27 10:33N 66°22' E 012°22'0 0.5
2015-Apr-27 09:33N 66°22' E 012°21'0 0.0
2015-Apr-27 08:33N 66°22' E 012°21'0 0.0
2015-Apr-27 07:33N 66°22' E 012°21'0 0.0
2015-Apr-27 06:33N 66°22' E 012°21'0 0.0
2015-Apr-25 17:22N 66°22' E 012°21'0 0.0
2015-Apr-25 16:28N 66°22' E 012°21'0 0.0
2015-Apr-25 15:28N 66°22' E 012°21'0 0.0
2015-Apr-25 14:30N 66°22' E 012°21'0 0.0
2015-Apr-24 17:28N 66°22' E 012°21'0 0.0
2015-Apr-24 16:28N 66°22' E 012°21'0 0.0
2015-Apr-24 15:28N 66°22' E 012°21'0 0.0
2015-Apr-24 14:28N 66°22' E 012°21'0 0.0
2015-Apr-24 13:30N 66°22' E 012°21'0 0.0
2015-Apr-24 10:05N 66°22' E 012°21'0 0.0
2015-Apr-24 09:29N 66°22' E 012°21'  

Dump ship's entire track history